sensor_id;sensor_type;location;lat;lon;timestamp;pressure;altitude;pressure_sealevel;temperature;humidity
23635;BME280;11994;51.038;16.974;2023-05-01T00:02:24;100716.05;;;6.63;65.66
23635;BME280;11994;51.038;16.974;2023-05-01T00:04:50;100713.09;;;6.59;65.90
23635;BME280;11994;51.038;16.974;2023-05-01T00:07:16;100709.42;;;6.59;66.10
23635;BME280;11994;51.038;16.974;2023-05-01T00:09:41;100704.05;;;6.56;66.04
23635;BME280;11994;51.038;16.974;2023-05-01T00:12:06;100705.10;;;6.52;65.92
23635;BME280;11994;51.038;16.974;2023-05-01T00:14:31;100700.05;;;6.47;66.28
23635;BME280;11994;51.038;16.974;2023-05-01T00:16:57;100699.52;;;6.46;66.40
23635;BME280;11994;51.038;16.974;2023-05-01T00:19:22;100699.02;;;6.46;66.32
23635;BME280;11994;51.038;16.974;2023-05-01T00:21:47;100692.58;;;6.43;66.36
23635;BME280;11994;51.038;16.974;2023-05-01T00:24:13;100697.27;;;6.39;66.64
23635;BME280;11994;51.038;16.974;2023-05-01T00:26:39;100697.95;;;6.39;66.86
23635;BME280;11994;51.038;16.974;2023-05-01T00:29:04;100695.17;;;6.40;66.87
23635;BME280;11994;51.038;16.974;2023-05-01T00:31:29;100691.54;;;6.42;66.81
23635;BME280;11994;51.038;16.974;2023-05-01T00:33:54;100690.48;;;6.44;66.97
23635;BME280;11994;51.038;16.974;2023-05-01T00:36:20;100686.85;;;6.47;67.09
23635;BME280;11994;51.038;16.974;2023-05-01T00:38:45;100688.06;;;6.53;67.43
23635;BME280;11994;51.038;16.974;2023-05-01T00:41:11;100687.90;;;6.61;67.46
23635;BME280;11994;51.038;16.974;2023-05-01T00:43:36;100686.15;;;6.68;67.39
23635;BME280;11994;51.038;16.974;2023-05-01T00:46:02;100688.08;;;6.67;67.54
23635;BME280;11994;51.038;16.974;2023-05-01T00:48:27;100690.33;;;6.67;67.48
23635;BME280;11994;51.038;16.974;2023-05-01T00:50:52;100687.90;;;6.68;67.48
23635;BME280;11994;51.038;16.974;2023-05-01T00:53:18;100685.46;;;6.68;67.50
23635;BME280;11994;51.038;16.974;2023-05-01T00:55:44;100680.60;;;6.67;67.49
23635;BME280;11994;51.038;16.974;2023-05-01T00:58:10;100679.91;;;6.66;67.51
23635;BME280;11994;51.038;16.974;2023-05-01T01:00:36;100679.38;;;6.63;67.52
23635;BME280;11994;51.038;16.974;2023-05-01T01:03:02;100679.73;;;6.59;67.43
23635;BME280;11994;51.038;16.974;2023-05-01T01:05:28;100675.89;;;6.59;67.39
23635;BME280;11994;51.038;16.974;2023-05-01T01:08:14;100673.82;;;6.58;67.47
23635;BME280;11994;51.038;16.974;2023-05-01T01:10:55;100677.12;;;6.48;67.28
23635;BME280;11994;51.038;16.974;2023-05-01T01:13:31;100675.02;;;6.34;67.33
23635;BME280;11994;51.038;16.974;2023-05-01T01:16:03;100677.79;;;6.24;67.53
23635;BME280;11994;51.038;16.974;2023-05-01T01:18:35;100671.18;;;6.19;67.87
23635;BME280;11994;51.038;16.974;2023-05-01T01:21:05;100676.36;;;6.10;67.59
23635;BME280;11994;51.038;16.974;2023-05-01T01:23:41;100676.16;;;5.97;67.70
23635;BME280;11994;51.038;16.974;2023-05-01T01:28:59;100667.38;;;5.73;68.37
23635;BME280;11994;51.038;16.974;2023-05-01T01:31:38;100664.95;;;5.68;68.58
23635;BME280;11994;51.038;16.974;2023-05-01T01:39:10;100669.33;;;5.39;68.58
23635;BME280;11994;51.038;16.974;2023-05-01T01:41:37;100668.42;;;5.34;69.54
23635;BME280;11994;51.038;16.974;2023-05-01T01:44:15;100670.87;;;5.34;69.70
23635;BME280;11994;51.038;16.974;2023-05-01T01:46:44;100665.31;;;5.35;69.80
23635;BME280;11994;51.038;16.974;2023-05-01T01:49:16;100662.89;;;5.35;69.88
23635;BME280;11994;51.038;16.974;2023-05-01T01:51:43;100662.38;;;5.36;70.16
23635;BME280;11994;51.038;16.974;2023-05-01T01:54:10;100662.02;;;5.36;70.34
23635;BME280;11994;51.038;16.974;2023-05-01T01:56:37;100660.11;;;5.34;70.35
23635;BME280;11994;51.038;16.974;2023-05-01T01:59:05;100659.39;;;5.28;70.05
23635;BME280;11994;51.038;16.974;2023-05-01T02:01:31;100658.64;;;5.21;70.22
23635;BME280;11994;51.038;16.974;2023-05-01T02:03:58;100658.45;;;5.16;70.32
23635;BME280;11994;51.038;16.974;2023-05-01T02:06:25;100658.27;;;5.13;70.54
23635;BME280;11994;51.038;16.974;2023-05-01T02:08:50;100660.15;;;5.11;70.64
23635;BME280;11994;51.038;16.974;2023-05-01T02:11:17;100658.39;;;5.06;70.63
23635;BME280;11994;51.038;16.974;2023-05-01T02:13:43;100660.30;;;5.04;70.77
23635;BME280;11994;51.038;16.974;2023-05-01T02:16:09;100654.92;;;5.06;71.24
23635;BME280;11994;51.038;16.974;2023-05-01T02:18:35;100647.81;;;5.06;71.13
23635;BME280;11994;51.038;16.974;2023-05-01T02:21:02;100644.66;;;4.99;71.03
23635;BME280;11994;51.038;16.974;2023-05-01T02:23:28;100641.88;;;4.97;71.21
23635;BME280;11994;51.038;16.974;2023-05-01T02:25:55;100641.50;;;4.95;71.45
23635;BME280;11994;51.038;16.974;2023-05-01T02:28:22;100643.02;;;4.88;71.26
23635;BME280;11994;51.038;16.974;2023-05-01T02:30:48;100641.61;;;4.83;71.34
23635;BME280;11994;51.038;16.974;2023-05-01T02:33:13;100640.55;;;4.79;71.41
23635;BME280;11994;51.038;16.974;2023-05-01T02:35:39;100638.44;;;4.77;71.78
23635;BME280;11994;51.038;16.974;2023-05-01T02:38:05;100637.73;;;4.74;71.55
23635;BME280;11994;51.038;16.974;2023-05-01T02:40:30;100633.72;;;4.69;71.60
23635;BME280;11994;51.038;16.974;2023-05-01T02:42:56;100637.66;;;4.63;71.48
23635;BME280;11994;51.038;16.974;2023-05-01T02:45:26;100638.65;;;4.57;71.83
23635;BME280;11994;51.038;16.974;2023-05-01T02:47:53;100636.89;;;4.54;72.07
23635;BME280;11994;51.038;16.974;2023-05-01T02:50:20;100634.10;;;4.51;71.94
23635;BME280;11994;51.038;16.974;2023-05-01T02:52:46;100629.95;;;4.50;72.02
23635;BME280;11994;51.038;16.974;2023-05-01T02:55:12;100633.60;;;4.53;72.24
23635;BME280;11994;51.038;16.974;2023-05-01T02:57:37;100631.02;;;4.57;72.22
23635;BME280;11994;51.038;16.974;2023-05-01T03:00:02;100628.96;;;4.59;72.14
23635;BME280;11994;51.038;16.974;2023-05-01T03:02:28;100632.11;;;4.63;72.50
23635;BME280;11994;51.038;16.974;2023-05-01T03:04:53;100632.00;;;4.70;72.80
23635;BME280;11994;51.038;16.974;2023-05-01T03:07:19;100628.35;;;4.71;72.64
23635;BME280;11994;51.038;16.974;2023-05-01T03:09:44;100621.08;;;4.71;72.55
23635;BME280;11994;51.038;16.974;2023-05-01T03:12:09;100625.74;;;4.68;72.50
23635;BME280;11994;51.038;16.974;2023-05-01T03:14:35;100630.05;;;4.65;72.69
23635;BME280;11994;51.038;16.974;2023-05-01T03:17:00;100628.31;;;4.64;72.65
23635;BME280;11994;51.038;16.974;2023-05-01T03:19:25;100622.25;;;4.65;73.14
23635;BME280;11994;51.038;16.974;2023-05-01T03:21:51;100618.82;;;4.68;72.78
23635;BME280;11994;51.038;16.974;2023-05-01T03:24:16;100618.23;;;4.60;72.74
23635;BME280;11994;51.038;16.974;2023-05-01T03:26:41;100619.40;;;4.55;72.81
23635;BME280;11994;51.038;16.974;2023-05-01T03:29:07;100617.65;;;4.51;73.18
23635;BME280;11994;51.038;16.974;2023-05-01T03:31:32;100618.13;;;4.46;73.13
23635;BME280;11994;51.038;16.974;2023-05-01T03:33:57;100617.22;;;4.41;73.19
23635;BME280;11994;51.038;16.974;2023-05-01T03:36:23;100616.13;;;4.35;73.21
23635;BME280;11994;51.038;16.974;2023-05-01T03:38:49;100618.83;;;4.26;73.08
23635;BME280;11994;51.038;16.974;2023-05-01T03:41:14;100621.05;;;4.21;73.48
23635;BME280;11994;51.038;16.974;2023-05-01T03:43:40;100621.55;;;4.19;73.80
23635;BME280;11994;51.038;16.974;2023-05-01T03:46:05;100622.38;;;4.15;73.69
23635;BME280;11994;51.038;16.974;2023-05-01T03:48:30;100625.80;;;4.11;73.91
23635;BME280;11994;51.038;16.974;2023-05-01T03:50:55;100627.70;;;4.10;73.91
23635;BME280;11994;51.038;16.974;2023-05-01T03:53:22;100619.02;;;4.08;73.84
23635;BME280;11994;51.038;16.974;2023-05-01T03:55:47;100615.19;;;4.05;73.81
23635;BME280;11994;51.038;16.974;2023-05-01T03:58:13;100614.79;;;4.01;73.75
23635;BME280;11994;51.038;16.974;2023-05-01T04:00:38;100615.48;;;4.00;74.26
23635;BME280;11994;51.038;16.974;2023-05-01T04:03:04;100620.85;;;4.00;74.28
23635;BME280;11994;51.038;16.974;2023-05-01T04:05:29;100616.87;;;3.99;74.21
23635;BME280;11994;51.038;16.974;2023-05-01T04:07:55;100613.05;;;3.99;74.49
23635;BME280;11994;51.038;16.974;2023-05-01T04:10:20;100613.94;;;4.00;74.48
23635;BME280;11994;51.038;16.974;2023-05-01T04:12:46;100613.92;;;4.00;74.48
23635;BME280;11994;51.038;16.974;2023-05-01T04:15:11;100610.80;;;3.99;74.42
23635;BME280;11994;51.038;16.974;2023-05-01T04:17:36;100611.49;;;3.99;74.49
23635;BME280;11994;51.038;16.974;2023-05-01T04:20:02;100607.70;;;4.01;74.36
23635;BME280;11994;51.038;16.974;2023-05-01T04:22:29;100607.59;;;4.08;74.76
23635;BME280;11994;51.038;16.974;2023-05-01T04:24:54;100605.07;;;4.15;75.07
23635;BME280;11994;51.038;16.974;2023-05-01T04:27:20;100599.44;;;4.26;75.32
23635;BME280;11994;51.038;16.974;2023-05-01T04:29:45;100600.75;;;4.37;75.65
23635;BME280;11994;51.038;16.974;2023-05-01T04:32:10;100595.30;;;4.50;75.34
23635;BME280;11994;51.038;16.974;2023-05-01T04:34:36;100594.85;;;4.59;75.27
23635;BME280;11994;51.038;16.974;2023-05-01T04:37:01;100596.98;;;4.68;75.56
23635;BME280;11994;51.038;16.974;2023-05-01T04:39:27;100599.14;;;4.80;75.69
23635;BME280;11994;51.038;16.974;2023-05-01T04:41:53;100600.23;;;4.91;75.59
23635;BME280;11994;51.038;16.974;2023-05-01T04:44:18;100602.90;;;5.00;75.48
23635;BME280;11994;51.038;16.974;2023-05-01T04:46:43;100599.48;;;5.08;75.70
23635;BME280;11994;51.038;16.974;2023-05-01T04:49:09;100600.55;;;5.17;75.74
23635;BME280;11994;51.038;16.974;2023-05-01T04:51:34;100601.96;;;5.25;75.56
23635;BME280;11994;51.038;16.974;2023-05-01T04:53:59;100602.17;;;5.31;75.49
23635;BME280;11994;51.038;16.974;2023-05-01T04:56:25;100601.15;;;5.37;75.34
23635;BME280;11994;51.038;16.974;2023-05-01T04:58:51;100602.40;;;5.46;75.15
23635;BME280;11994;51.038;16.974;2023-05-01T05:01:16;100604.67;;;5.54;75.08
23635;BME280;11994;51.038;16.974;2023-05-01T05:03:41;100605.23;;;5.61;75.06
23635;BME280;11994;51.038;16.974;2023-05-01T05:06:06;100607.69;;;5.69;74.98
23635;BME280;11994;51.038;16.974;2023-05-01T05:08:32;100603.70;;;5.76;74.94
23635;BME280;11994;51.038;16.974;2023-05-01T05:10:57;100602.02;;;5.85;75.20
23635;BME280;11994;51.038;16.974;2023-05-01T05:13:26;100601.52;;;5.95;75.17
23635;BME280;11994;51.038;16.974;2023-05-01T05:15:52;100601.02;;;6.04;75.08
23635;BME280;11994;51.038;16.974;2023-05-01T05:18:17;100597.38;;;6.15;75.20
23635;BME280;11994;51.038;16.974;2023-05-01T05:20:42;100601.89;;;6.24;74.91
23635;BME280;11994;51.038;16.974;2023-05-01T05:23:08;100593.21;;;6.30;74.37
23635;BME280;11994;51.038;16.974;2023-05-01T05:25:34;100586.61;;;6.41;74.67
23635;BME280;11994;51.038;16.974;2023-05-01T05:27:59;100583.65;;;6.55;74.70
23635;BME280;11994;51.038;16.974;2023-05-01T05:30:25;100585.70;;;6.71;74.73
23635;BME280;11994;51.038;16.974;2023-05-01T05:32:50;100578.70;;;6.89;75.07
23635;BME280;11994;51.038;16.974;2023-05-01T05:35:15;100574.82;;;7.08;74.78
23635;BME280;11994;51.038;16.974;2023-05-01T05:37:41;100578.41;;;7.25;74.10
23635;BME280;11994;51.038;16.974;2023-05-01T05:40:06;100578.52;;;7.39;74.28
23635;BME280;11994;51.038;16.974;2023-05-01T05:42:32;100578.26;;;7.58;74.16
23635;BME280;11994;51.038;16.974;2023-05-01T05:44:58;100578.30;;;7.78;73.66
23635;BME280;11994;51.038;16.974;2023-05-01T05:47:23;100573.48;;;7.98;73.51
23635;BME280;11994;51.038;16.974;2023-05-01T05:49:48;100571.96;;;8.16;73.14
23635;BME280;11994;51.038;16.974;2023-05-01T05:52:13;100574.77;;;8.34;72.83
23635;BME280;11994;51.038;16.974;2023-05-01T05:54:39;100572.86;;;8.54;72.56
23635;BME280;11994;51.038;16.974;2023-05-01T05:57:04;100571.01;;;8.66;71.71
23635;BME280;11994;51.038;16.974;2023-05-01T05:59:29;100571.08;;;8.75;71.05
23635;BME280;11994;51.038;16.974;2023-05-01T06:01:55;100575.19;;;8.83;69.98
23635;BME280;11994;51.038;16.974;2023-05-01T06:04:20;100568.65;;;8.91;70.18
23635;BME280;11994;51.038;16.974;2023-05-01T06:06:45;100572.01;;;9.03;70.02
23635;BME280;11994;51.038;16.974;2023-05-01T06:09:10;100572.50;;;9.20;70.16
23635;BME280;11994;51.038;16.974;2023-05-01T06:11:37;100568.73;;;9.42;70.21
23635;BME280;11994;51.038;16.974;2023-05-01T06:14:02;100567.66;;;9.69;70.18
23635;BME280;11994;51.038;16.974;2023-05-01T06:16:27;100568.56;;;9.90;68.83
23635;BME280;11994;51.038;16.974;2023-05-01T06:18:53;100571.25;;;9.98;68.92
23635;BME280;11994;51.038;16.974;2023-05-01T06:21:18;100559.36;;;10.22;69.08
23635;BME280;11994;51.038;16.974;2023-05-01T06:23:43;100563.73;;;10.42;68.41
23635;BME280;11994;51.038;16.974;2023-05-01T06:26:08;100563.10;;;10.59;68.12
23635;BME280;11994;51.038;16.974;2023-05-01T06:28:34;100559.19;;;10.81;67.92
23635;BME280;11994;51.038;16.974;2023-05-01T06:30:59;100560.41;;;10.99;66.97
23635;BME280;11994;51.038;16.974;2023-05-01T06:33:24;100553.65;;;11.13;66.33
23635;BME280;11994;51.038;16.974;2023-05-01T06:35:50;100556.77;;;11.23;64.12
23635;BME280;11994;51.038;16.974;2023-05-01T06:38:15;100556.41;;;11.24;64.26
23635;BME280;11994;51.038;16.974;2023-05-01T06:40:40;100549.38;;;11.34;63.95
23635;BME280;11994;51.038;16.974;2023-05-01T06:43:06;100549.61;;;11.46;62.94
23635;BME280;11994;51.038;16.974;2023-05-01T06:45:31;100553.66;;;11.54;63.39
23635;BME280;11994;51.038;16.974;2023-05-01T06:47:56;100553.27;;;11.73;63.55
23635;BME280;11994;51.038;16.974;2023-05-01T06:50:21;100551.80;;;11.91;62.05
23635;BME280;11994;51.038;16.974;2023-05-01T06:52:47;100553.55;;;11.92;61.53
23635;BME280;11994;51.038;16.974;2023-05-01T06:55:12;100550.60;;;11.90;60.80
23635;BME280;11994;51.038;16.974;2023-05-01T06:57:37;100546.55;;;11.91;60.79
23635;BME280;11994;51.038;16.974;2023-05-01T07:00:04;100540.59;;;11.97;61.28
23635;BME280;11994;51.038;16.974;2023-05-01T07:02:30;100540.05;;;12.13;60.62
23635;BME280;11994;51.038;16.974;2023-05-01T07:04:55;100538.73;;;12.23;59.92
23635;BME280;11994;51.038;16.974;2023-05-01T07:07:20;100538.08;;;12.28;59.07
23635;BME280;11994;51.038;16.974;2023-05-01T07:09:46;100534.39;;;12.35;57.98
23635;BME280;11994;51.038;16.974;2023-05-01T07:12:11;100530.80;;;12.38;57.54
23635;BME280;11994;51.038;16.974;2023-05-01T07:14:37;100526.31;;;12.42;57.87
23635;BME280;11994;51.038;16.974;2023-05-01T07:17:02;100525.79;;;12.49;56.00
23635;BME280;11994;51.038;16.974;2023-05-01T07:19:27;100524.75;;;12.55;55.37
23635;BME280;11994;51.038;16.974;2023-05-01T07:21:53;100527.31;;;12.64;54.33
23635;BME280;11994;51.038;16.974;2023-05-01T07:24:18;100523.87;;;12.68;54.49
23635;BME280;11994;51.038;16.974;2023-05-01T07:26:45;100522.97;;;12.81;54.57
23635;BME280;11994;51.038;16.974;2023-05-01T07:29:10;100520.85;;;12.95;53.89
23635;BME280;11994;51.038;16.974;2023-05-01T07:31:37;100517.73;;;13.07;52.59
23635;BME280;11994;51.038;16.974;2023-05-01T07:34:03;100517.23;;;13.17;52.33
23635;BME280;11994;51.038;16.974;2023-05-01T07:36:28;100518.48;;;13.28;52.44
23635;BME280;11994;51.038;16.974;2023-05-01T07:38:53;100520.96;;;13.34;50.56
23635;BME280;11994;51.038;16.974;2023-05-01T07:41:19;100516.08;;;13.32;50.90
23635;BME280;11994;51.038;16.974;2023-05-01T07:53:48;100514.27;;;13.57;48.67
23635;BME280;11994;51.038;16.974;2023-05-01T07:56:14;100514.73;;;13.59;48.06
23635;BME280;11994;51.038;16.974;2023-05-01T07:58:40;100510.15;;;13.60;46.37
23635;BME280;11994;51.038;16.974;2023-05-01T08:01:06;100510.73;;;13.58;47.70
23635;BME280;11994;51.038;16.974;2023-05-01T08:03:33;100511.21;;;13.65;46.25
23635;BME280;11994;51.038;16.974;2023-05-01T08:05:58;100512.08;;;13.71;45.88
23635;BME280;11994;51.038;16.974;2023-05-01T08:08:23;100508.30;;;13.79;45.94
23635;BME280;11994;51.038;16.974;2023-05-01T08:10:49;100505.16;;;13.84;45.82
23635;BME280;11994;51.038;16.974;2023-05-01T08:13:15;100504.73;;;13.91;44.25
23635;BME280;11994;51.038;16.974;2023-05-01T08:15:41;100504.64;;;13.94;44.00
23635;BME280;11994;51.038;16.974;2023-05-01T08:28:05;100485.00;;;14.09;43.44
23635;BME280;11994;51.038;16.974;2023-05-01T08:30:30;100486.23;;;13.98;43.62
23635;BME280;11994;51.038;16.974;2023-05-01T08:32:56;100485.72;;;13.92;44.23
23635;BME280;11994;51.038;16.974;2023-05-01T08:35:21;100491.52;;;14.03;45.32
23635;BME280;11994;51.038;16.974;2023-05-01T08:37:46;100487.37;;;14.16;44.29
23635;BME280;11994;51.038;16.974;2023-05-01T08:40:13;100484.62;;;14.20;44.94
23635;BME280;11994;51.038;16.974;2023-05-01T08:42:38;100480.76;;;14.30;45.20
23635;BME280;11994;51.038;16.974;2023-05-01T08:45:07;100481.35;;;14.43;45.28
23635;BME280;11994;51.038;16.974;2023-05-01T08:47:34;100479.25;;;14.53;44.97
23635;BME280;11994;51.038;16.974;2023-05-01T08:50:00;100477.17;;;14.62;45.16
23635;BME280;11994;51.038;16.974;2023-05-01T08:52:27;100474.19;;;14.71;45.06
23635;BME280;11994;51.038;16.974;2023-05-01T08:54:53;100462.91;;;14.67;45.07
23635;BME280;11994;51.038;16.974;2023-05-01T08:57:20;100463.83;;;14.66;45.90
23635;BME280;11994;51.038;16.974;2023-05-01T08:59:46;100467.47;;;14.77;45.65
23635;BME280;11994;51.038;16.974;2023-05-01T09:02:12;100462.96;;;14.84;45.20
23635;BME280;11994;51.038;16.974;2023-05-01T09:04:39;100459.67;;;14.97;45.96
23635;BME280;11994;51.038;16.974;2023-05-01T09:07:05;100459.48;;;15.02;45.31
23635;BME280;11994;51.038;16.974;2023-05-01T09:09:30;100455.28;;;14.97;44.49
23635;BME280;11994;51.038;16.974;2023-05-01T09:12:00;100452.50;;;14.96;44.32
23635;BME280;11994;51.038;16.974;2023-05-01T09:14:28;100438.79;;;15.00;45.34
23635;BME280;11994;51.038;16.974;2023-05-01T09:16:55;100441.27;;;15.09;44.81
23635;BME280;11994;51.038;16.974;2023-05-01T09:19:20;100440.45;;;15.02;45.18
23635;BME280;11994;51.038;16.974;2023-05-01T09:21:46;100436.59;;;15.02;45.66
23635;BME280;11994;51.038;16.974;2023-05-01T09:24:11;100433.73;;;15.08;45.82
23635;BME280;11994;51.038;16.974;2023-05-01T09:26:38;100433.83;;;15.23;43.77
23635;BME280;11994;51.038;16.974;2023-05-01T09:29:05;100431.58;;;15.27;43.28
23635;BME280;11994;51.038;16.974;2023-05-01T09:31:30;100430.75;;;15.29;43.46
23635;BME280;11994;51.038;16.974;2023-05-01T09:34:00;100426.92;;;15.33;43.61
23635;BME280;11994;51.038;16.974;2023-05-01T09:36:26;100431.06;;;15.40;44.59
23635;BME280;11994;51.038;16.974;2023-05-01T09:38:52;100428.36;;;15.51;43.43
23635;BME280;11994;51.038;16.974;2023-05-01T09:41:17;100425.39;;;15.50;42.96
23635;BME280;11994;51.038;16.974;2023-05-01T09:43:48;100426.02;;;15.56;43.32
23635;BME280;11994;51.038;16.974;2023-05-01T09:46:14;100423.44;;;15.59;44.00
23635;BME280;11994;51.038;16.974;2023-05-01T09:48:39;100421.41;;;15.74;42.94
23635;BME280;11994;51.038;16.974;2023-05-01T09:51:21;100418.98;;;15.73;41.97
23635;BME280;11994;51.038;16.974;2023-05-01T09:53:46;100418.98;;;15.69;42.50
23635;BME280;11994;51.038;16.974;2023-05-01T09:56:12;100410.13;;;15.82;43.17
23635;BME280;11994;51.038;16.974;2023-05-01T09:58:38;100416.44;;;15.96;42.61
23635;BME280;11994;51.038;16.974;2023-05-01T10:01:04;100406.67;;;16.01;42.12
23635;BME280;11994;51.038;16.974;2023-05-01T10:03:29;100411.70;;;16.07;41.11
23635;BME280;11994;51.038;16.974;2023-05-01T10:05:55;100407.27;;;16.03;41.02
23635;BME280;11994;51.038;16.974;2023-05-01T10:08:24;100402.25;;;16.05;41.81
23635;BME280;11994;51.038;16.974;2023-05-01T10:11:03;100398.98;;;16.11;42.16
23635;BME280;11994;51.038;16.974;2023-05-01T10:13:32;100394.36;;;16.20;42.11
23635;BME280;11994;51.038;16.974;2023-05-01T10:15:57;100390.81;;;16.33;41.37
23635;BME280;11994;51.038;16.974;2023-05-01T10:18:24;100393.41;;;16.30;40.42
23635;BME280;11994;51.038;16.974;2023-05-01T10:20:50;100390.38;;;16.23;39.90
23635;BME280;11994;51.038;16.974;2023-05-01T10:23:15;100381.58;;;16.18;40.54
23635;BME280;11994;51.038;16.974;2023-05-01T10:25:41;100374.15;;;16.26;41.55
23635;BME280;11994;51.038;16.974;2023-05-01T10:28:07;100376.66;;;16.41;41.04
23635;BME280;11994;51.038;16.974;2023-05-01T10:30:33;100369.73;;;16.50;40.88
23635;BME280;11994;51.038;16.974;2023-05-01T10:32:59;100365.04;;;16.49;41.30
23635;BME280;11994;51.038;16.974;2023-05-01T10:35:26;100364.42;;;16.54;40.88
23635;BME280;11994;51.038;16.974;2023-05-01T10:38:05;100365.96;;;16.64;39.25
23635;BME280;11994;51.038;16.974;2023-05-01T10:43:24;100361.80;;;16.54;39.17
23635;BME280;11994;51.038;16.974;2023-05-01T10:46:25;100357.87;;;16.55;38.99
23635;BME280;11994;51.038;16.974;2023-05-01T10:51:09;100340.48;;;16.75;40.24
23635;BME280;11994;51.038;16.974;2023-05-01T10:53:35;100341.92;;;16.86;39.57
23635;BME280;11994;51.038;16.974;2023-05-01T10:56:01;100340.76;;;16.92;37.56
23635;BME280;11994;51.038;16.974;2023-05-01T11:03:45;100328.27;;;17.05;38.72
23635;BME280;11994;51.038;16.974;2023-05-01T11:06:10;100320.11;;;17.10;39.19
23635;BME280;11994;51.038;16.974;2023-05-01T11:08:36;100315.88;;;17.17;38.95
23635;BME280;11994;51.038;16.974;2023-05-01T11:19:42;100307.73;;;17.46;38.29
23635;BME280;11994;51.038;16.974;2023-05-01T11:21:57;100307.73;;;17.49;36.86
23635;BME280;11994;51.038;16.974;2023-05-01T11:24:29;100305.07;;;17.53;36.67
23635;BME280;11994;51.038;16.974;2023-05-01T11:26:55;100302.45;;;17.52;36.96
23635;BME280;11994;51.038;16.974;2023-05-01T11:29:20;100298.02;;;17.53;36.75
23635;BME280;11994;51.038;16.974;2023-05-01T11:31:47;100288.71;;;17.51;37.47
23635;BME280;11994;51.038;16.974;2023-05-01T11:34:13;100278.67;;;17.47;37.62
23635;BME280;11994;51.038;16.974;2023-05-01T11:36:47;100276.27;;;17.52;36.38
23635;BME280;11994;51.038;16.974;2023-05-01T11:39:16;100275.95;;;17.55;36.60
23635;BME280;11994;51.038;16.974;2023-05-01T11:41:42;100272.88;;;17.53;36.98
23635;BME280;11994;51.038;16.974;2023-05-01T11:44:07;100265.89;;;17.54;36.38
23635;BME280;11994;51.038;16.974;2023-05-01T11:46:35;100262.87;;;17.51;35.75
23635;BME280;11994;51.038;16.974;2023-05-01T11:49:01;100260.50;;;17.56;35.67
23635;BME280;11994;51.038;16.974;2023-05-01T11:51:27;100255.90;;;17.69;34.68
23635;BME280;11994;51.038;16.974;2023-05-01T11:56:24;100250.61;;;17.76;35.66
23635;BME280;11994;51.038;16.974;2023-05-01T11:58:50;100247.71;;;17.81;35.90
23635;BME280;11994;51.038;16.974;2023-05-01T12:01:15;100247.54;;;17.90;36.28
23635;BME280;11994;51.038;16.974;2023-05-01T12:03:42;100245.02;;;18.08;35.92
23635;BME280;11994;51.038;16.974;2023-05-01T12:06:08;100242.90;;;18.11;34.69
23635;BME280;11994;51.038;16.974;2023-05-01T12:08:33;100232.44;;;18.05;34.38
23635;BME280;11994;51.038;16.974;2023-05-01T12:10:59;100231.82;;;18.00;34.38
23635;BME280;11994;51.038;16.974;2023-05-01T12:13:24;100223.96;;;18.01;34.28
23635;BME280;11994;51.038;16.974;2023-05-01T12:15:51;100226.98;;;18.04;33.89
23635;BME280;11994;51.038;16.974;2023-05-01T12:18:17;100227.77;;;18.06;33.50
23635;BME280;11994;51.038;16.974;2023-05-01T12:20:49;100226.56;;;18.05;34.33
23635;BME280;11994;51.038;16.974;2023-05-01T12:23:18;100224.81;;;18.18;32.95
23635;BME280;11994;51.038;16.974;2023-05-01T12:25:44;100219.69;;;18.24;32.62
23635;BME280;11994;51.038;16.974;2023-05-01T12:28:11;100216.86;;;18.27;33.43
23635;BME280;11994;51.038;16.974;2023-05-01T12:30:38;100215.95;;;18.31;33.28
23635;BME280;11994;51.038;16.974;2023-05-01T12:33:13;100212.90;;;18.35;32.53
23635;BME280;11994;51.038;16.974;2023-05-01T12:35:39;100196.67;;;18.34;33.37
23635;BME280;11994;51.038;16.974;2023-05-01T12:38:11;100190.84;;;18.37;32.75
23635;BME280;11994;51.038;16.974;2023-05-01T12:40:38;100186.98;;;18.42;32.09
23635;BME280;11994;51.038;16.974;2023-05-01T12:43:03;100183.48;;;18.41;33.16
23635;BME280;11994;51.038;16.974;2023-05-01T12:45:28;100186.30;;;18.51;33.19
23635;BME280;11994;51.038;16.974;2023-05-01T12:47:54;100179.08;;;18.60;33.49
23635;BME280;11994;51.038;16.974;2023-05-01T12:50:19;100177.77;;;18.67;32.59
23635;BME280;11994;51.038;16.974;2023-05-01T12:52:45;100173.23;;;18.66;32.31
23635;BME280;11994;51.038;16.974;2023-05-01T12:55:10;100166.18;;;18.68;33.10
23635;BME280;11994;51.038;16.974;2023-05-01T12:57:49;100161.08;;;18.71;33.59
23635;BME280;11994;51.038;16.974;2023-05-01T13:00:15;100157.60;;;18.73;33.22
23635;BME280;11994;51.038;16.974;2023-05-01T13:02:40;100153.67;;;18.70;32.90
23635;BME280;11994;51.038;16.974;2023-05-01T13:05:09;100155.02;;;18.68;33.08
23635;BME280;11994;51.038;16.974;2023-05-01T13:07:35;100150.48;;;18.70;33.69
23635;BME280;11994;51.038;16.974;2023-05-01T13:10:01;100145.45;;;18.74;34.15
23635;BME280;11994;51.038;16.974;2023-05-01T13:12:28;100140.60;;;18.78;34.33
23635;BME280;11994;51.038;16.974;2023-05-01T13:14:54;100138.16;;;18.81;33.79
23635;BME280;11994;51.038;16.974;2023-05-01T13:17:22;100137.33;;;18.86;33.74
23635;BME280;11994;51.038;16.974;2023-05-01T13:19:53;100132.10;;;18.87;34.49
23635;BME280;11994;51.038;16.974;2023-05-01T13:22:26;100122.33;;;18.91;35.21
23635;BME280;11994;51.038;16.974;2023-05-01T13:24:52;100121.09;;;18.99;34.89
23635;BME280;11994;51.038;16.974;2023-05-01T13:27:19;100116.58;;;19.01;35.57
23635;BME280;11994;51.038;16.974;2023-05-01T13:29:49;100112.61;;;19.02;35.55
23635;BME280;11994;51.038;16.974;2023-05-01T13:32:15;100109.08;;;19.08;35.09